sensor_id;sensor_type;location;lat;lon;timestamp;temperature;humidity
18581;DHT22;9420;50.876;7.012;2023-03-14T00:01:13;11.20;99.90
18581;DHT22;9420;50.876;7.012;2023-03-14T00:03:42;11.10;99.90
18581;DHT22;9420;50.876;7.012;2023-03-14T00:06:12;11.10;99.90
18581;DHT22;9420;50.876;7.012;2023-03-14T00:08:40;11.10;99.90
18581;DHT22;9420;50.876;7.012;2023-03-14T00:11:10;11.20;99.90
18581;DHT22;9420;50.876;7.012;2023-03-14T00:13:38;11.20;99.90
18581;DHT22;9420;50.876;7.012;2023-03-14T00:16:08;11.30;99.90
18581;DHT22;9420;50.876;7.012;2023-03-14T00:18:38;11.30;99.90
18581;DHT22;9420;50.876;7.012;2023-03-14T00:21:07;11.30;99.90
18581;DHT22;9420;50.876;7.012;2023-03-14T00:23:39;11.30;99.90
18581;DHT22;9420;50.876;7.012;2023-03-14T00:26:09;11.40;99.90
18581;DHT22;9420;50.876;7.012;2023-03-14T00:28:38;11.50;99.90
18581;DHT22;9420;50.876;7.012;2023-03-14T00:31:08;11.50;99.90
18581;DHT22;9420;50.876;7.012;2023-03-14T00:33:37;11.50;99.90
18581;DHT22;9420;50.876;7.012;2023-03-14T00:36:07;11.40;99.90
18581;DHT22;9420;50.876;7.012;2023-03-14T00:38:38;11.50;99.90
18581;DHT22;9420;50.876;7.012;2023-03-14T00:41:08;11.50;99.90
18581;DHT22;9420;50.876;7.012;2023-03-14T00:43:36;11.50;99.90
18581;DHT22;9420;50.876;7.012;2023-03-14T00:46:04;11.50;99.90
18581;DHT22;9420;50.876;7.012;2023-03-14T00:48:32;11.50;99.90
18581;DHT22;9420;50.876;7.012;2023-03-14T00:51:00;11.60;99.90
18581;DHT22;9420;50.876;7.012;2023-03-14T00:53:28;11.70;99.90
18581;DHT22;9420;50.876;7.012;2023-03-14T00:56:01;11.80;99.90
18581;DHT22;9420;50.876;7.012;2023-03-14T00:58:29;11.80;99.90
18581;DHT22;9420;50.876;7.012;2023-03-14T01:00:56;11.90;99.90
18581;DHT22;9420;50.876;7.012;2023-03-14T01:03:24;11.90;99.90
18581;DHT22;9420;50.876;7.012;2023-03-14T01:05:51;11.90;99.90
18581;DHT22;9420;50.876;7.012;2023-03-14T01:08:18;11.90;99.90
18581;DHT22;9420;50.876;7.012;2023-03-14T01:10:45;12.00;99.90
18581;DHT22;9420;50.876;7.012;2023-03-14T01:13:13;11.90;99.90
18581;DHT22;9420;50.876;7.012;2023-03-14T01:15:41;11.90;99.90
18581;DHT22;9420;50.876;7.012;2023-03-14T01:18:08;11.90;99.90
18581;DHT22;9420;50.876;7.012;2023-03-14T01:20:37;11.90;99.90
18581;DHT22;9420;50.876;7.012;2023-03-14T01:23:03;11.90;99.90
18581;DHT22;9420;50.876;7.012;2023-03-14T01:25:30;11.70;99.90
18581;DHT22;9420;50.876;7.012;2023-03-14T01:27:58;11.50;99.90
18581;DHT22;9420;50.876;7.012;2023-03-14T01:30:27;11.20;99.90
18581;DHT22;9420;50.876;7.012;2023-03-14T01:32:54;10.90;99.90
18581;DHT22;9420;50.876;7.012;2023-03-14T01:35:27;10.80;99.90
18581;DHT22;9420;50.876;7.012;2023-03-14T01:37:55;10.60;99.90
18581;DHT22;9420;50.876;7.012;2023-03-14T01:40:25;10.40;99.90
18581;DHT22;9420;50.876;7.012;2023-03-14T01:43:06;10.20;99.90
18581;DHT22;9420;50.876;7.012;2023-03-14T01:46:32;10.10;99.90
18581;DHT22;9420;50.876;7.012;2023-03-14T01:49:09;9.90;99.90
18581;DHT22;9420;50.876;7.012;2023-03-14T01:51:44;9.70;99.90
18581;DHT22;9420;50.876;7.012;2023-03-14T01:54:19;9.60;99.90
18581;DHT22;9420;50.876;7.012;2023-03-14T01:56:56;9.50;99.90
18581;DHT22;9420;50.876;7.012;2023-03-14T01:59:27;9.50;99.90
18581;DHT22;9420;50.876;7.012;2023-03-14T02:02:00;9.50;99.90
18581;DHT22;9420;50.876;7.012;2023-03-14T02:04:30;9.60;99.90
18581;DHT22;9420;50.876;7.012;2023-03-14T02:07:09;9.60;99.90
18581;DHT22;9420;50.876;7.012;2023-03-14T02:09:39;9.60;99.90
18581;DHT22;9420;50.876;7.012;2023-03-14T02:12:08;9.60;99.90
18581;DHT22;9420;50.876;7.012;2023-03-14T02:14:36;9.50;99.90
18581;DHT22;9420;50.876;7.012;2023-03-14T02:17:06;9.30;99.90
18581;DHT22;9420;50.876;7.012;2023-03-14T02:19:48;9.20;99.90
18581;DHT22;9420;50.876;7.012;2023-03-14T02:22:24;9.10;99.90
18581;DHT22;9420;50.876;7.012;2023-03-14T02:24:58;9.10;99.90
18581;DHT22;9420;50.876;7.012;2023-03-14T02:27:32;9.00;99.90
18581;DHT22;9420;50.876;7.012;2023-03-14T02:30:04;9.00;99.90
18581;DHT22;9420;50.876;7.012;2023-03-14T02:32:34;8.90;99.90
18581;DHT22;9420;50.876;7.012;2023-03-14T02:35:08;8.90;99.90
18581;DHT22;9420;50.876;7.012;2023-03-14T02:37:42;8.80;99.90
18581;DHT22;9420;50.876;7.012;2023-03-14T02:40:15;8.90;99.90
18581;DHT22;9420;50.876;7.012;2023-03-14T02:42:43;8.80;99.90
18581;DHT22;9420;50.876;7.012;2023-03-14T02:45:39;8.70;99.90
18581;DHT22;9420;50.876;7.012;2023-03-14T02:48:13;8.60;99.90
18581;DHT22;9420;50.876;7.012;2023-03-14T02:50:44;8.50;99.90
18581;DHT22;9420;50.876;7.012;2023-03-14T02:53:15;8.50;99.90
18581;DHT22;9420;50.876;7.012;2023-03-14T02:55:45;8.40;99.90
18581;DHT22;9420;50.876;7.012;2023-03-14T02:58:15;8.40;99.90
18581;DHT22;9420;50.876;7.012;2023-03-14T03:00:42;8.40;99.90
18581;DHT22;9420;50.876;7.012;2023-03-14T03:03:10;8.40;99.90
18581;DHT22;9420;50.876;7.012;2023-03-14T03:05:37;8.40;99.90
18581;DHT22;9420;50.876;7.012;2023-03-14T03:08:05;8.50;99.90
18581;DHT22;9420;50.876;7.012;2023-03-14T03:10:32;8.50;99.90
18581;DHT22;9420;50.876;7.012;2023-03-14T03:13:00;8.60;99.90
18581;DHT22;9420;50.876;7.012;2023-03-14T03:15:29;8.60;99.90
18581;DHT22;9420;50.876;7.012;2023-03-14T03:17:56;8.80;99.90
18581;DHT22;9420;50.876;7.012;2023-03-14T03:20:23;8.80;99.90
18581;DHT22;9420;50.876;7.012;2023-03-14T03:22:50;8.90;99.90
18581;DHT22;9420;50.876;7.012;2023-03-14T03:25:17;8.90;99.90
18581;DHT22;9420;50.876;7.012;2023-03-14T03:27:45;9.00;99.90
18581;DHT22;9420;50.876;7.012;2023-03-14T03:30:13;9.20;99.90
18581;DHT22;9420;50.876;7.012;2023-03-14T03:32:41;9.30;99.90
18581;DHT22;9420;50.876;7.012;2023-03-14T03:35:09;9.40;99.90
18581;DHT22;9420;50.876;7.012;2023-03-14T03:37:37;9.50;99.90
18581;DHT22;9420;50.876;7.012;2023-03-14T03:40:05;9.60;99.90
18581;DHT22;9420;50.876;7.012;2023-03-14T03:42:34;9.70;99.90
18581;DHT22;9420;50.876;7.012;2023-03-14T03:45:03;9.80;99.90
18581;DHT22;9420;50.876;7.012;2023-03-14T03:47:31;9.80;99.90
18581;DHT22;9420;50.876;7.012;2023-03-14T03:49:59;9.90;99.90
18581;DHT22;9420;50.876;7.012;2023-03-14T03:52:26;9.80;99.90
18581;DHT22;9420;50.876;7.012;2023-03-14T03:54:53;9.90;99.90
18581;DHT22;9420;50.876;7.012;2023-03-14T03:57:20;9.90;99.90
18581;DHT22;9420;50.876;7.012;2023-03-14T03:59:48;9.90;99.90
18581;DHT22;9420;50.876;7.012;2023-03-14T04:02:15;9.80;99.90
18581;DHT22;9420;50.876;7.012;2023-03-14T04:04:42;9.90;99.90
18581;DHT22;9420;50.876;7.012;2023-03-14T04:07:10;9.80;99.90
18581;DHT22;9420;50.876;7.012;2023-03-14T04:09:39;10.00;99.90
18581;DHT22;9420;50.876;7.012;2023-03-14T04:12:06;10.00;99.90
18581;DHT22;9420;50.876;7.012;2023-03-14T04:14:33;9.90;99.90
18581;DHT22;9420;50.876;7.012;2023-03-14T04:17:00;10.00;99.90
18581;DHT22;9420;50.876;7.012;2023-03-14T04:19:27;9.90;99.90
18581;DHT22;9420;50.876;7.012;2023-03-14T04:21:54;9.80;99.90
18581;DHT22;9420;50.876;7.012;2023-03-14T04:24:22;9.90;99.90
18581;DHT22;9420;50.876;7.012;2023-03-14T04:26:49;9.80;99.90
18581;DHT22;9420;50.876;7.012;2023-03-14T04:29:16;9.80;99.90
18581;DHT22;9420;50.876;7.012;2023-03-14T04:31:44;9.80;99.90
18581;DHT22;9420;50.876;7.012;2023-03-14T04:34:11;9.70;99.90
18581;DHT22;9420;50.876;7.012;2023-03-14T04:36:38;9.70;99.90
18581;DHT22;9420;50.876;7.012;2023-03-14T04:39:05;9.60;99.90
18581;DHT22;9420;50.876;7.012;2023-03-14T04:41:33;9.50;99.90
18581;DHT22;9420;50.876;7.012;2023-03-14T04:44:00;9.50;99.90
18581;DHT22;9420;50.876;7.012;2023-03-14T04:46:28;9.40;99.90
18581;DHT22;9420;50.876;7.012;2023-03-14T04:48:55;9.40;99.90
18581;DHT22;9420;50.876;7.012;2023-03-14T04:51:23;9.40;99.90
18581;DHT22;9420;50.876;7.012;2023-03-14T04:53:53;9.30;99.90
18581;DHT22;9420;50.876;7.012;2023-03-14T04:56:22;9.30;99.90
18581;DHT22;9420;50.876;7.012;2023-03-14T04:58:52;9.30;99.90
18581;DHT22;9420;50.876;7.012;2023-03-14T05:01:19;9.20;99.90
18581;DHT22;9420;50.876;7.012;2023-03-14T05:03:47;9.20;99.90
18581;DHT22;9420;50.876;7.012;2023-03-14T05:06:13;9.20;99.90
18581;DHT22;9420;50.876;7.012;2023-03-14T05:08:40;9.30;99.90
18581;DHT22;9420;50.876;7.012;2023-03-14T05:11:10;9.30;99.90
18581;DHT22;9420;50.876;7.012;2023-03-14T05:13:38;9.40;99.90
18581;DHT22;9420;50.876;7.012;2023-03-14T05:16:08;9.40;99.90
18581;DHT22;9420;50.876;7.012;2023-03-14T05:18:36;9.40;99.90
18581;DHT22;9420;50.876;7.012;2023-03-14T05:21:04;9.60;99.90
18581;DHT22;9420;50.876;7.012;2023-03-14T05:23:32;9.60;99.90
18581;DHT22;9420;50.876;7.012;2023-03-14T05:25:59;9.60;99.90
18581;DHT22;9420;50.876;7.012;2023-03-14T05:28:26;9.70;99.90
18581;DHT22;9420;50.876;7.012;2023-03-14T05:30:53;9.80;99.90
18581;DHT22;9420;50.876;7.012;2023-03-14T05:33:22;9.80;99.90
18581;DHT22;9420;50.876;7.012;2023-03-14T05:35:49;9.90;99.90
18581;DHT22;9420;50.876;7.012;2023-03-14T05:38:16;9.90;99.90
18581;DHT22;9420;50.876;7.012;2023-03-14T05:40:44;9.90;99.90
18581;DHT22;9420;50.876;7.012;2023-03-14T05:43:12;9.90;99.90
18581;DHT22;9420;50.876;7.012;2023-03-14T05:45:40;9.90;99.90
18581;DHT22;9420;50.876;7.012;2023-03-14T05:48:08;10.00;99.90
18581;DHT22;9420;50.876;7.012;2023-03-14T05:50:36;10.00;99.90
18581;DHT22;9420;50.876;7.012;2023-03-14T05:53:03;9.90;99.90
18581;DHT22;9420;50.876;7.012;2023-03-14T05:55:31;9.90;99.90
18581;DHT22;9420;50.876;7.012;2023-03-14T05:57:58;9.90;99.90
18581;DHT22;9420;50.876;7.012;2023-03-14T06:00:26;9.80;99.90
18581;DHT22;9420;50.876;7.012;2023-03-14T06:02:53;9.70;99.90
18581;DHT22;9420;50.876;7.012;2023-03-14T06:05:20;9.70;99.90
18581;DHT22;9420;50.876;7.012;2023-03-14T06:07:51;9.80;99.90
18581;DHT22;9420;50.876;7.012;2023-03-14T06:10:18;9.80;99.90
18581;DHT22;9420;50.876;7.012;2023-03-14T06:12:45;9.70;99.90
18581;DHT22;9420;50.876;7.012;2023-03-14T06:15:12;9.60;99.90
18581;DHT22;9420;50.876;7.012;2023-03-14T06:17:40;9.50;99.90
18581;DHT22;9420;50.876;7.012;2023-03-14T06:20:09;9.40;99.90
18581;DHT22;9420;50.876;7.012;2023-03-14T06:22:37;9.40;99.90
18581;DHT22;9420;50.876;7.012;2023-03-14T06:25:07;9.30;99.90
18581;DHT22;9420;50.876;7.012;2023-03-14T06:27:35;9.30;99.90
18581;DHT22;9420;50.876;7.012;2023-03-14T06:30:02;9.40;99.90
18581;DHT22;9420;50.876;7.012;2023-03-14T06:32:30;9.50;99.90
18581;DHT22;9420;50.876;7.012;2023-03-14T06:34:57;9.70;99.90
18581;DHT22;9420;50.876;7.012;2023-03-14T06:37:26;9.60;99.90
18581;DHT22;9420;50.876;7.012;2023-03-14T06:39:54;9.70;99.90
18581;DHT22;9420;50.876;7.012;2023-03-14T06:42:22;9.70;99.90
18581;DHT22;9420;50.876;7.012;2023-03-14T06:44:49;9.80;99.90
18581;DHT22;9420;50.876;7.012;2023-03-14T06:47:17;9.90;99.90
18581;DHT22;9420;50.876;7.012;2023-03-14T06:49:44;9.90;99.90
18581;DHT22;9420;50.876;7.012;2023-03-14T06:52:11;9.90;99.90
18581;DHT22;9420;50.876;7.012;2023-03-14T06:54:38;10.00;99.90
18581;DHT22;9420;50.876;7.012;2023-03-14T06:57:05;10.10;99.90
18581;DHT22;9420;50.876;7.012;2023-03-14T06:59:34;10.20;99.90
18581;DHT22;9420;50.876;7.012;2023-03-14T07:02:01;10.20;99.90
18581;DHT22;9420;50.876;7.012;2023-03-14T07:04:29;10.30;99.90
18581;DHT22;9420;50.876;7.012;2023-03-14T07:06:55;10.30;99.90
18581;DHT22;9420;50.876;7.012;2023-03-14T07:09:23;10.30;99.90
18581;DHT22;9420;50.876;7.012;2023-03-14T07:11:50;10.30;99.90
18581;DHT22;9420;50.876;7.012;2023-03-14T07:14:17;10.30;99.90
18581;DHT22;9420;50.876;7.012;2023-03-14T07:16:45;10.20;99.90
18581;DHT22;9420;50.876;7.012;2023-03-14T07:19:12;10.30;99.90
18581;DHT22;9420;50.876;7.012;2023-03-14T07:21:41;10.30;99.90
18581;DHT22;9420;50.876;7.012;2023-03-14T07:24:08;10.50;99.90
18581;DHT22;9420;50.876;7.012;2023-03-14T07:26:35;10.60;99.90
18581;DHT22;9420;50.876;7.012;2023-03-14T07:29:03;10.70;99.90
18581;DHT22;9420;50.876;7.012;2023-03-14T07:31:30;10.80;99.90
18581;DHT22;9420;50.876;7.012;2023-03-14T07:33:59;11.00;99.90
18581;DHT22;9420;50.876;7.012;2023-03-14T07:36:26;11.10;99.90
18581;DHT22;9420;50.876;7.012;2023-03-14T07:38:53;11.10;99.90
18581;DHT22;9420;50.876;7.012;2023-03-14T07:41:20;11.20;99.90
18581;DHT22;9420;50.876;7.012;2023-03-14T07:43:48;11.20;99.90
18581;DHT22;9420;50.876;7.012;2023-03-14T07:46:15;11.40;99.90
18581;DHT22;9420;50.876;7.012;2023-03-14T07:48:43;11.70;99.90
18581;DHT22;9420;50.876;7.012;2023-03-14T07:51:11;11.80;99.90
18581;DHT22;9420;50.876;7.012;2023-03-14T07:53:38;11.70;99.90
18581;DHT22;9420;50.876;7.012;2023-03-14T07:56:06;11.70;99.90
18581;DHT22;9420;50.876;7.012;2023-03-14T07:58:34;11.70;99.90
18581;DHT22;9420;50.876;7.012;2023-03-14T08:01:01;11.80;99.90
18581;DHT22;9420;50.876;7.012;2023-03-14T08:03:29;11.80;99.90
18581;DHT22;9420;50.876;7.012;2023-03-14T08:05:56;11.90;99.90
18581;DHT22;9420;50.876;7.012;2023-03-14T08:08:24;12.00;99.90
18581;DHT22;9420;50.876;7.012;2023-03-14T08:10:51;12.10;99.90
18581;DHT22;9420;50.876;7.012;2023-03-14T08:13:19;12.10;99.90
18581;DHT22;9420;50.876;7.012;2023-03-14T08:15:48;12.00;99.90
18581;DHT22;9420;50.876;7.012;2023-03-14T08:18:16;12.10;99.90
18581;DHT22;9420;50.876;7.012;2023-03-14T08:20:43;12.10;99.90
18581;DHT22;9420;50.876;7.012;2023-03-14T08:23:11;12.10;99.90
18581;DHT22;9420;50.876;7.012;2023-03-14T08:25:39;12.20;99.90
18581;DHT22;9420;50.876;7.012;2023-03-14T08:28:06;12.20;99.90
18581;DHT22;9420;50.876;7.012;2023-03-14T08:30:33;12.20;99.90
18581;DHT22;9420;50.876;7.012;2023-03-14T08:33:01;12.30;99.90
18581;DHT22;9420;50.876;7.012;2023-03-14T08:35:28;12.50;99.90
18581;DHT22;9420;50.876;7.012;2023-03-14T08:37:55;12.50;99.90
18581;DHT22;9420;50.876;7.012;2023-03-14T08:40:22;12.40;99.90
18581;DHT22;9420;50.876;7.012;2023-03-14T08:42:51;12.20;99.90
18581;DHT22;9420;50.876;7.012;2023-03-14T08:45:18;12.10;99.90
18581;DHT22;9420;50.876;7.012;2023-03-14T08:47:45;12.00;99.90
18581;DHT22;9420;50.876;7.012;2023-03-14T08:50:13;11.90;99.90
18581;DHT22;9420;50.876;7.012;2023-03-14T08:52:40;11.90;99.90
18581;DHT22;9420;50.876;7.012;2023-03-14T08:55:08;11.90;99.90
18581;DHT22;9420;50.876;7.012;2023-03-14T08:57:35;11.90;99.90
18581;DHT22;9420;50.876;7.012;2023-03-14T09:00:06;11.90;99.90
18581;DHT22;9420;50.876;7.012;2023-03-14T09:02:37;11.90;99.90
18581;DHT22;9420;50.876;7.012;2023-03-14T09:05:05;11.70;99.90
18581;DHT22;9420;50.876;7.012;2023-03-14T09:07:34;11.40;99.90
18581;DHT22;9420;50.876;7.012;2023-03-14T09:10:01;11.20;99.90
18581;DHT22;9420;50.876;7.012;2023-03-14T09:12:29;11.00;99.90
18581;DHT22;9420;50.876;7.012;2023-03-14T09:14:56;11.10;99.90
18581;DHT22;9420;50.876;7.012;2023-03-14T09:17:25;11.00;99.90
18581;DHT22;9420;50.876;7.012;2023-03-14T09:19:52;11.10;99.90
18581;DHT22;9420;50.876;7.012;2023-03-14T09:22:20;11.10;99.90
18581;DHT22;9420;50.876;7.012;2023-03-14T09:24:47;11.10;99.90
18581;DHT22;9420;50.876;7.012;2023-03-14T09:27:14;11.20;99.90
18581;DHT22;9420;50.876;7.012;2023-03-14T09:29:42;11.20;99.90
18581;DHT22;9420;50.876;7.012;2023-03-14T09:32:09;11.20;99.90
18581;DHT22;9420;50.876;7.012;2023-03-14T09:34:37;11.20;99.90
18581;DHT22;9420;50.876;7.012;2023-03-14T09:37:04;11.20;99.90
18581;DHT22;9420;50.876;7.012;2023-03-14T09:39:32;11.10;99.90
18581;DHT22;9420;50.876;7.012;2023-03-14T09:42:02;11.00;99.90
18581;DHT22;9420;50.876;7.012;2023-03-14T09:44:34;10.80;99.90
18581;DHT22;9420;50.876;7.012;2023-03-14T09:47:06;10.80;99.90
18581;DHT22;9420;50.876;7.012;2023-03-14T09:49:41;9.90;99.90
18581;DHT22;9420;50.876;7.012;2023-03-14T09:52:13;8.70;99.90
18581;DHT22;9420;50.876;7.012;2023-03-14T09:54:44;8.50;99.90
18581;DHT22;9420;50.876;7.012;2023-03-14T09:57:17;8.50;99.90
18581;DHT22;9420;50.876;7.012;2023-03-14T09:59:48;8.40;99.90
18581;DHT22;9420;50.876;7.012;2023-03-14T10:02:19;8.40;99.90
18581;DHT22;9420;50.876;7.012;2023-03-14T10:04:50;8.50;99.90
18581;DHT22;9420;50.876;7.012;2023-03-14T10:07:23;8.40;99.90
18581;DHT22;9420;50.876;7.012;2023-03-14T10:09:55;8.40;99.90
18581;DHT22;9420;50.876;7.012;2023-03-14T10:12:30;8.40;99.90
18581;DHT22;9420;50.876;7.012;2023-03-14T10:15:03;8.40;99.90
18581;DHT22;9420;50.876;7.012;2023-03-14T10:17:39;8.30;99.90
18581;DHT22;9420;50.876;7.012;2023-03-14T10:20:27;8.30;99.90
18581;DHT22;9420;50.876;7.012;2023-03-14T10:22:59;8.30;99.90
18581;DHT22;9420;50.876;7.012;2023-03-14T10:25:29;8.30;99.90
18581;DHT22;9420;50.876;7.012;2023-03-14T10:27:58;8.30;99.90
18581;DHT22;9420;50.876;7.012;2023-03-14T10:30:39;8.30;99.90
18581;DHT22;9420;50.876;7.012;2023-03-14T10:33:19;8.30;99.90
18581;DHT22;9420;50.876;7.012;2023-03-14T10:35:54;8.20;99.90
18581;DHT22;9420;50.876;7.012;2023-03-14T10:38:27;8.20;99.90
18581;DHT22;9420;50.876;7.012;2023-03-14T10:40:56;8.10;99.90
18581;DHT22;9420;50.876;7.012;2023-03-14T10:43:25;7.90;99.90
18581;DHT22;9420;50.876;7.012;2023-03-14T10:45:58;7.90;99.90
18581;DHT22;9420;50.876;7.012;2023-03-14T10:48:32;8.00;99.90
18581;DHT22;9420;50.876;7.012;2023-03-14T10:51:08;8.00;99.90
18581;DHT22;9420;50.876;7.012;2023-03-14T10:53:41;8.00;99.90
18581;DHT22;9420;50.876;7.012;2023-03-14T10:56:13;8.00;99.90
18581;DHT22;9420;50.876;7.012;2023-03-14T10:58:45;7.90;99.90
18581;DHT22;9420;50.876;7.012;2023-03-14T11:04:18;7.70;99.90
18581;DHT22;9420;50.876;7.012;2023-03-14T11:07:04;7.70;99.90
18581;DHT22;9420;50.876;7.012;2023-03-14T11:09:39;7.60;99.90
18581;DHT22;9420;50.876;7.012;2023-03-14T11:12:27;7.70;99.90
18581;DHT22;9420;50.876;7.012;2023-03-14T11:15:09;7.70;99.90
18581;DHT22;9420;50.876;7.012;2023-03-14T11:17:53;7.80;99.90
18581;DHT22;9420;50.876;7.012;2023-03-14T11:20:37;7.90;99.90
18581;DHT22;9420;50.876;7.012;2023-03-14T11:23:14;8.00;99.90
18581;DHT22;9420;50.876;7.012;2023-03-14T11:25:53;8.10;99.90
18581;DHT22;9420;50.876;7.012;2023-03-14T11:28:32;8.20;99.90
18581;DHT22;9420;50.876;7.012;2023-03-14T11:31:09;8.30;99.90
18581;DHT22;9420;50.876;7.012;2023-03-14T11:33:47;8.30;99.90
18581;DHT22;9420;50.876;7.012;2023-03-14T11:36:29;8.40;99.90
18581;DHT22;9420;50.876;7.012;2023-03-14T11:39:01;8.50;99.90
18581;DHT22;9420;50.876;7.012;2023-03-14T11:41:31;8.90;99.90
18581;DHT22;9420;50.876;7.012;2023-03-14T11:44:09;9.10;99.90
18581;DHT22;9420;50.876;7.012;2023-03-14T11:46:44;9.20;99.90
18581;DHT22;9420;50.876;7.012;2023-03-14T11:49:25;9.20;99.90
18581;DHT22;9420;50.876;7.012;2023-03-14T11:52:00;9.20;99.90
18581;DHT22;9420;50.876;7.012;2023-03-14T11:54:37;9.00;99.90
18581;DHT22;9420;50.876;7.012;2023-03-14T11:57:12;7.10;99.90
18581;DHT22;9420;50.876;7.012;2023-03-14T11:59:47;6.30;99.90
18581;DHT22;9420;50.876;7.012;2023-03-14T12:02:24;6.00;99.90
18581;DHT22;9420;50.876;7.012;2023-03-14T12:05:22;6.20;99.90
18581;DHT22;9420;50.876;7.012;2023-03-14T12:08:34;6.50;99.90
18581;DHT22;9420;50.876;7.012;2023-03-14T12:11:11;6.80;99.90
18581;DHT22;9420;50.876;7.012;2023-03-14T12:13:41;6.90;99.90
18581;DHT22;9420;50.876;7.012;2023-03-14T12:16:36;7.20;99.90
18581;DHT22;9420;50.876;7.012;2023-03-14T12:19:26;7.40;99.90
18581;DHT22;9420;50.876;7.012;2023-03-14T12:21:58;7.50;99.90
18581;DHT22;9420;50.876;7.012;2023-03-14T12:24:35;7.50;99.90
18581;DHT22;9420;50.876;7.012;2023-03-14T12:27:09;7.70;99.90
18581;DHT22;9420;50.876;7.012;2023-03-14T12:30:01;7.90;99.90
18581;DHT22;9420;50.876;7.012;2023-03-14T12:32:28;7.80;99.90
18581;DHT22;9420;50.876;7.012;2023-03-14T12:35:07;7.80;99.90
18581;DHT22;9420;50.876;7.012;2023-03-14T12:38:03;7.80;99.90
18581;DHT22;9420;50.876;7.012;2023-03-14T12:40:38;7.70;99.90
18581;DHT22;9420;50.876;7.012;2023-03-14T12:43:25;7.60;99.90
18581;DHT22;9420;50.876;7.012;2023-03-14T12:46:14;7.60;99.90
18581;DHT22;9420;50.876;7.012;2023-03-14T12:48:47;7.70;99.90
18581;DHT22;9420;50.876;7.012;2023-03-14T12:51:16;7.60;99.90
18581;DHT22;9420;50.876;7.012;2023-03-14T12:54:19;7.70;99.90
18581;DHT22;9420;50.876;7.012;2023-03-14T12:57:15;7.70;99.90
18581;DHT22;9420;50.876;7.012;2023-03-14T12:59:56;7.70;99.90
18581;DHT22;9420;50.876;7.012;2023-03-14T13:02:26;7.60;99.90
18581;DHT22;9420;50.876;7.012;2023-03-14T13:05:02;7.60;99.90
18581;DHT22;9420;50.876;7.012;2023-03-14T13:08:03;7.60;99.90
18581;DHT22;9420;50.876;7.012;2023-03-14T13:10:42;7.50;99.90
18581;DHT22;9420;50.876;7.012;2023-03-14T13:13:20;7.40;99.90
18581;DHT22;9420;50.876;7.012;2023-03-14T13:15:54;7.30;99.90
18581;DHT22;9420;50.876;7.012;2023-03-14T13:18:28;7.20;99.90
18581;DHT22;9420;50.876;7.012;2023-03-14T13:21:03;7.20;99.90
18581;DHT22;9420;50.876;7.012;2023-03-14T13:23:35;7.10;99.90
18581;DHT22;9420;50.876;7.012;2023-03-14T13:26:11;7.00;99.90
18581;DHT22;9420;50.876;7.012;2023-03-14T13:28:41;7.10;99.90
18581;DHT22;9420;50.876;7.012;2023-03-14T13:31:21;7.00;99.90
18581;DHT22;9420;50.876;7.012;2023-03-14T13:33:58;7.20;99.90
18581;DHT22;9420;50.876;7.012;2023-03-14T13:36:26;7.50;99.90
18581;DHT22;9420;50.876;7.012;2023-03-14T13:38:58;7.60;99.90
18581;DHT22;9420;50.876;7.012;2023-03-14T13:41:27;7.60;99.90
18581;DHT22;9420;50.876;7.012;2023-03-14T13:44:01;7.70;99.90
18581;DHT22;9420;50.876;7.012;2023-03-14T13:46:35;7.80;99.90
18581;DHT22;9420;50.876;7.012;2023-03-14T13:49:04;7.90;99.90
18581;DHT22;9420;50.876;7.012;2023-03-14T13:51:33;7.80;99.90
18581;DHT22;9420;50.876;7.012;2023-03-14T13:54:01;7.80;99.90
18581;DHT22;9420;50.876;7.012;2023-03-14T13:56:31;7.60;99.90
18581;DHT22;9420;50.876;7.012;2023-03-14T13:58:59;7.40;99.90
18581;DHT22;9420;50.876;7.012;2023-03-14T14:01:29;7.20;99.90
18581;DHT22;9420;50.876;7.012;2023-03-14T14:04:07;7.30;99.90
18581;DHT22;9420;50.876;7.012;2023-03-14T14:06:36;7.40;99.90
18581;DHT22;9420;50.876;7.012;2023-03-14T14:09:11;7.40;99.90
18581;DHT22;9420;50.876;7.012;2023-03-14T14:11:42;7.50;99.90
18581;DHT22;9420;50.876;7.012;2023-03-14T14:14:17;7.40;99.90
18581;DHT22;9420;50.876;7.012;2023-03-14T14:16:50;7.40;99.90
18581;DHT22;9420;50.876;7.012;2023-03-14T14:19:22;7.50;99.90
18581;DHT22;9420;50.876;7.012;2023-03-14T14:21:54;7.60;99.90
18581;DHT22;9420;50.876;7.012;2023-03-14T14:24:24;7.60;99.90
18581;DHT22;9420;50.876;7.012;2023-03-14T14:27:00;7.70;99.90
18581;DHT22;9420;50.876;7.012;2023-03-14T14:29:31;7.60;99.90
18581;DHT22;9420;50.876;7.012;2023-03-14T14:32:01;7.50;99.90
18581;DHT22;9420;50.876;7.012;2023-03-14T14:34:38;7.40;99.90
18581;DHT22;9420;50.876;7.012;2023-03-14T14:37:18;7.40;99.90
18581;DHT22;9420;50.876;7.012;2023-03-14T14:39:51;7.40;99.90
18581;DHT22;9420;50.876;7.012;2023-03-14T14:42:23;7.30;99.90
18581;DHT22;9420;50.876;7.012;2023-03-14T14:44:53;7.50;99.90
18581;DHT22;9420;50.876;7.012;2023-03-14T14:47:24;7.50;99.90
18581;DHT22;9420;50.876;7.012;2023-03-14T14:49:59;7.50;99.90
18581;DHT22;9420;50.876;7.012;2023-03-14T14:52:37;7.40;99.90
18581;DHT22;9420;50.876;7.012;2023-03-14T14:55:17;7.40;99.90
18581;DHT22;9420;50.876;7.012;2023-03-14T14:57:51;7.50;99.90
18581;DHT22;9420;50.876;7.012;2023-03-14T15:00:21;7.40;99.90
18581;DHT22;9420;50.876;7.012;2023-03-14T15:02:51;7.50;99.90
18581;DHT22;9420;50.876;7.012;2023-03-14T15:05:23;7.50;99.90
18581;DHT22;9420;50.876;7.012;2023-03-14T15:07:52;7.50;99.90
18581;DHT22;9420;50.876;7.012;2023-03-14T15:10:21;7.50;99.90
18581;DHT22;9420;50.876;7.012;2023-03-14T15:12:52;7.60;99.90
18581;DHT22;9420;50.876;7.012;2023-03-14T15:15:19;7.50;99.90
18581;DHT22;9420;50.876;7.012;2023-03-14T15:17:47;7.50;99.90
18581;DHT22;9420;50.876;7.012;2023-03-14T15:20:16;7.50;99.90
18581;DHT22;9420;50.876;7.012;2023-03-14T15:22:46;7.50;99.90
18581;DHT22;9420;50.876;7.012;2023-03-14T15:25:14;7.60;99.90
18581;DHT22;9420;50.876;7.012;2023-03-14T15:27:41;7.50;99.90
18581;DHT22;9420;50.876;7.012;2023-03-14T15:30:11;7.50;99.90
18581;DHT22;9420;50.876;7.012;2023-03-14T15:32:39;7.50;99.90
18581;DHT22;9420;50.876;7.012;2023-03-14T15:35:07;7.60;99.90
18581;DHT22;9420;50.876;7.012;2023-03-14T15:37:35;7.60;99.90
18581;DHT22;9420;50.876;7.012;2023-03-14T15:40:05;7.60;99.90
18581;DHT22;9420;50.876;7.012;2023-03-14T15:42:39;7.60;99.90
18581;DHT22;9420;50.876;7.012;2023-03-14T15:45:08;7.60;99.90
18581;DHT22;9420;50.876;7.012;2023-03-14T15:47:35;7.60;99.90
18581;DHT22;9420;50.876;7.012;2023-03-14T15:50:04;7.60;99.90
18581;DHT22;9420;50.876;7.012;2023-03-14T15:52:35;7.60;99.90
18581;DHT22;9420;50.876;7.012;2023-03-14T15:55:04;7.60;99.90
18581;DHT22;9420;50.876;7.012;2023-03-14T15:57:32;7.60;99.90
18581;DHT22;9420;50.876;7.012;2023-03-14T16:00:00;7.60;99.90
18581;DHT22;9420;50.876;7.012;2023-03-14T16:02:30;7.60;99.90
18581;DHT22;9420;50.876;7.012;2023-03-14T16:04:58;7.50;99.90
18581;DHT22;9420;50.876;7.012;2023-03-14T16:07:26;7.40;99.90
18581;DHT22;9420;50.876;7.012;2023-03-14T16:09:53;7.40;99.90
18581;DHT22;9420;50.876;7.012;2023-03-14T16:12:24;7.40;99.90
18581;DHT22;9420;50.876;7.012;2023-03-14T16:14:51;7.30;99.90
18581;DHT22;9420;50.876;7.012;2023-03-14T16:17:19;7.30;99.90
18581;DHT22;9420;50.876;7.012;2023-03-14T16:19:46;7.30;99.90
18581;DHT22;9420;50.876;7.012;2023-03-14T16:22:13;7.20;99.90
18581;DHT22;9420;50.876;7.012;2023-03-14T16:24:41;7.10;99.90